createdAt,value
2022-12-18T00:00:22.077Z,0.008361204013377926
2022-12-18T00:06:43.429Z,0.0
2022-12-18T00:13:09.888Z,0.0
2022-12-18T00:26:05.509Z,0.0
2022-12-18T00:32:28.411Z,0.0
2022-12-18T00:38:50.974Z,0.0
2022-12-18T00:45:29.817Z,0.0
2022-12-18T00:52:22.481Z,0.0
2022-12-18T00:58:49.435Z,0.0
2022-12-18T01:05:16.293Z,0.0
2022-12-18T01:11:38.511Z,0.0
2022-12-18T01:17:59.674Z,0.0
2022-12-18T01:24:24.172Z,0.0
2022-12-18T01:34:37.353Z,0.0
2022-12-18T01:44:36.911Z,0.013377926421404682
2022-12-18T01:50:58.360Z,0.0
2022-12-18T01:57:24.443Z,0.0
2022-12-18T02:03:48.020Z,0.0
2022-12-18T02:10:11.538Z,0.0
2022-12-18T02:16:33.513Z,0.0
2022-12-18T02:32:18.159Z,0.008160535117056856
2022-12-18T02:38:39.987Z,0.0
2022-12-18T02:45:06.157Z,0.0
2022-12-18T03:03:51.264Z,0.0
2022-12-18T03:10:13.556Z,0.0
2022-12-18T03:16:35.477Z,0.0
2022-12-18T03:22:57.264Z,0.0
2022-12-18T03:29:46.404Z,0.0
2022-12-18T03:36:07.108Z,0.0
2022-12-18T03:48:34.526Z,0.0
2022-12-18T03:57:26.579Z,0.0
2022-12-18T04:07:51.866Z,0.0
2022-12-18T04:16:02.817Z,0.0
2022-12-18T04:22:26.768Z,0.0
2022-12-18T04:33:06.813Z,0.0
2022-12-18T04:39:28.692Z,0.0
2022-12-18T04:45:50.913Z,0.0
2022-12-18T04:52:12.087Z,0.0
2022-12-18T04:58:33.380Z,0.0
2022-12-18T05:04:55.329Z,0.0
2022-12-18T05:11:17.088Z,0.0
2022-12-18T05:20:01.574Z,0.0
2022-12-18T05:27:03.970Z,0.0
2022-12-18T05:33:24.118Z,0.0
2022-12-18T05:39:44.795Z,0.0
2022-12-18T05:46:05.647Z,0.0
2022-12-18T05:52:25.601Z,0.0
2022-12-18T05:58:45.129Z,0.0
2022-12-18T06:05:05.977Z,0.0
2022-12-18T06:11:25.424Z,0.0
2022-12-18T06:17:47.263Z,0.0
2022-12-18T06:24:08.214Z,0.0
2022-12-18T06:32:35.920Z,0.0
2022-12-18T06:39:00.719Z,0.0
2022-12-18T06:48:39.513Z,0.0
2022-12-18T06:55:00.380Z,0.0
2022-12-18T07:01:19.821Z,0.0
2022-12-18T07:11:57.778Z,0.0
2022-12-18T07:18:17.446Z,0.0
2022-12-18T07:24:39.066Z,0.0
2022-12-18T07:31:00.197Z,0.0
2022-12-18T07:37:27.491Z,0.0
2022-12-18T07:44:51.480Z,0.0
2022-12-18T07:54:49.106Z,2.9173244147157207
2022-12-18T08:01:13.604Z,3.6434782608695646
2022-12-18T08:07:40.418Z,4.383946488294312
2022-12-18T08:18:14.410Z,5.866989966555185
2022-12-18T08:24:42.061Z,6.806588628762543
2022-12-18T08:38:50.615Z,11.065585284280933
2022-12-18T08:45:18.167Z,12.648561872909694
2022-12-18T08:51:47.501Z,17.74695652173913
2022-12-18T08:58:14.891Z,24.6550501672241
2022-12-18T09:04:39.129Z,23.36575250836122
2022-12-18T09:11:04.037Z,23.286254180601997
2022-12-18T09:24:45.408Z,30.377090301003346
2022-12-18T09:31:09.706Z,31.660401337792656
2022-12-18T09:38:45.085Z,36.585484949832775
2022-12-18T09:45:09.530Z,37.45836120401339
2022-12-18T09:51:31.962Z,40.00304347826087
2022-12-18T09:57:53.159Z,37.97173913043475
2022-12-18T10:10:09.511Z,41.008662207357865
2022-12-18T10:17:50.164Z,42.53923076923079
2022-12-18T10:24:11.879Z,44.82715719063547
2022-12-18T10:30:33.171Z,47.03602006688961
2022-12-18T10:36:55.047Z,43.98936454849499
2022-12-18T10:48:05.305Z,39.246387959866205
2022-12-18T10:59:22.904Z,42.03795986622073
2022-12-18T11:06:07.276Z,46.232040133779265
2022-12-18T11:12:29.736Z,41.2473578595318
2022-12-18T11:18:52.688Z,46.932307692307674
2022-12-18T11:41:09.784Z,55.98976588628764
2022-12-18T12:01:23.864Z,54.29033444816051
2022-12-18T12:11:34.002Z,52.00478260869564
2022-12-18T12:25:10.238Z,35.24280936454848
2022-12-18T12:33:21.811Z,36.299698996655486
2022-12-18T12:39:54.434Z,37.56367892976589
2022-12-18T12:46:28.837Z,34.60802675585283
2022-12-18T12:53:51.247Z,32.869030100334435
2022-12-18T13:00:31.495Z,30.40919732441471
2022-12-18T13:10:27.049Z,26.635752508361197
2022-12-18T13:16:52.978Z,26.48173913043479
2022-12-18T13:31:54.177Z,24.02615384615386
2022-12-18T13:38:24.052Z,23.231170568561847
2022-12-18T13:44:47.117Z,20.944515050167215
2022-12-18T13:51:12.085Z,17.817491638795985
2022-12-18T13:57:35.412Z,15.88832775919733
2022-12-18T14:04:00.867Z,14.063979933110378
2022-12-18T14:10:47.730Z,12.59200668896321
2022-12-18T14:17:17.675Z,10.43752508361206
2022-12-18T14:23:41.954Z,8.330167224080256
2022-12-18T14:31:50.492Z,5.675183946488295
2022-12-18T14:40:40.904Z,3.7519397993310997
2022-12-18T14:48:22.934Z,1.9935451505016724
2022-12-18T14:54:51.091Z,0.23461538461538467
2022-12-18T15:01:17.771Z,0.0
2022-12-18T15:07:41.460Z,0.0
2022-12-18T15:27:25.820Z,0.0
2022-12-18T15:39:13.221Z,0.0
2022-12-18T15:45:34.764Z,0.0
2022-12-18T15:51:55.930Z,0.0
2022-12-18T15:59:17.404Z,0.0
2022-12-18T16:05:39.952Z,0.0
2022-12-18T16:23:25.485Z,0.0
2022-12-18T16:29:47.801Z,0.0
2022-12-18T16:36:10.983Z,0.0
2022-12-18T16:46:03.788Z,0.0
2022-12-18T17:02:24.537Z,0.0
2022-12-18T17:08:49.715Z,0.0
2022-12-18T17:15:13.453Z,0.0
2022-12-18T17:21:37.713Z,0.0
2022-12-18T17:30:14.775Z,0.0
2022-12-18T17:36:38.101Z,0.0
2022-12-18T17:43:00.804Z,0.0
2022-12-18T17:49:56.199Z,0.0
2022-12-18T17:58:20.391Z,0.0
2022-12-18T18:04:42.210Z,0.0
2022-12-18T18:11:08.774Z,0.0
2022-12-18T18:18:28.080Z,0.0
2022-12-18T18:24:50.145Z,0.0
2022-12-18T18:31:13.040Z,0.0
2022-12-18T18:37:35.233Z,0.0
2022-12-18T18:43:58.770Z,0.0
2022-12-18T18:50:21.304Z,0.0
2022-12-18T18:57:19.042Z,0.0
2022-12-18T19:03:42.158Z,0.0
2022-12-18T19:17:29.532Z,0.0
2022-12-18T19:23:52.068Z,0.0
2022-12-18T19:30:22.509Z,0.0
2022-12-18T19:48:41.789Z,0.0
2022-12-18T19:55:04.481Z,0.0
2022-12-18T20:07:28.380Z,0.0
2022-12-18T20:13:54.179Z,0.0
2022-12-18T20:34:48.658Z,0.0
2022-12-18T20:41:38.258Z,0.0
2022-12-18T20:48:23.569Z,0.0
2022-12-18T20:56:59.346Z,0.0
2022-12-18T21:03:33.799Z,0.0
2022-12-18T21:10:12.580Z,0.0
2022-12-18T21:20:00.390Z,0.0
2022-12-18T21:26:20.757Z,0.0
2022-12-18T21:32:41.528Z,0.0
2022-12-18T21:44:44.501Z,0.0
2022-12-18T21:51:03.896Z,0.0
2022-12-18T21:57:27.509Z,0.0
2022-12-18T22:08:07.386Z,0.0
2022-12-18T22:14:27.835Z,0.0
2022-12-18T22:20:49.223Z,0.0
2022-12-18T22:27:10.493Z,0.0
2022-12-18T22:33:30.767Z,0.0
2022-12-18T22:39:51.271Z,0.0
2022-12-18T22:46:13.990Z,0.0
2022-12-18T22:52:35.184Z,0.0
2022-12-18T22:58:55.454Z,0.0
2022-12-18T23:05:16.215Z,0.0
2022-12-18T23:11:36.013Z,0.0
2022-12-18T23:17:57.144Z,0.0
2022-12-18T23:24:17.997Z,0.0
2022-12-18T23:30:38.588Z,0.0
2022-12-18T23:36:57.893Z,0.0
2022-12-18T23:43:18.947Z,0.0
2022-12-18T23:50:06.784Z,0.0
2022-12-18T23:56:28.394Z,0.0
